createdAt,value
2023-04-14T00:00:33.327Z,9.96
2023-04-14T00:03:02.258Z,9.98
2023-04-14T00:05:30.997Z,9.93
2023-04-14T00:07:59.311Z,9.98
2023-04-14T00:10:29.076Z,9.94
2023-04-14T00:12:56.823Z,9.84
2023-04-14T00:15:24.531Z,9.76
2023-04-14T00:17:53.047Z,9.74
2023-04-14T00:20:20.987Z,9.63
2023-04-14T00:22:48.954Z,9.66
2023-04-14T00:25:16.950Z,9.67
2023-04-14T00:27:46.025Z,9.63
2023-04-14T00:30:15.600Z,9.60
2023-04-14T00:32:43.310Z,9.54
2023-04-14T00:35:11.026Z,9.54
2023-04-14T00:37:38.757Z,9.49
2023-04-14T00:40:11.024Z,9.44
2023-04-14T00:42:44.040Z,9.40
2023-04-14T00:45:14.626Z,9.37
2023-04-14T00:47:46.915Z,9.34
2023-04-14T00:50:16.335Z,9.27
2023-04-14T00:52:47.040Z,9.24
2023-04-14T00:55:16.435Z,9.17
2023-04-14T00:57:44.787Z,9.17
2023-04-14T01:00:15.699Z,9.25
2023-04-14T01:02:44.097Z,9.27
2023-04-14T01:05:12.287Z,9.24
2023-04-14T01:07:40.661Z,9.25
2023-04-14T01:10:11.326Z,9.29
2023-04-14T01:12:58.641Z,9.25
2023-04-14T01:15:32.929Z,9.23
2023-04-14T01:18:08.892Z,9.25
2023-04-14T01:20:41.826Z,9.23
2023-04-14T01:23:12.586Z,9.27
2023-04-14T01:26:11.660Z,9.30
2023-04-14T01:28:58.795Z,9.27
2023-04-14T01:31:31.479Z,9.30
2023-04-14T01:34:07.361Z,9.27
2023-04-14T01:36:41.833Z,9.24
2023-04-14T01:39:12.453Z,9.25
2023-04-14T01:41:44.073Z,9.23
2023-04-14T01:44:13.974Z,9.13
2023-04-14T01:46:45.629Z,9.14
2023-04-14T01:49:14.302Z,9.18
2023-04-14T01:51:44.401Z,9.15
2023-04-14T01:54:14.218Z,9.14
2023-04-14T01:56:43.971Z,9.02
2023-04-14T01:59:13.366Z,9.02
2023-04-14T02:01:43.897Z,9.08
2023-04-14T02:04:12.826Z,8.99
2023-04-14T02:06:41.923Z,8.93
2023-04-14T02:09:13.106Z,8.94
2023-04-14T02:11:42.578Z,8.92
2023-04-14T02:14:11.990Z,8.92
2023-04-14T02:16:41.033Z,8.89
2023-04-14T02:19:10.741Z,8.86
2023-04-14T02:21:40.099Z,8.85
2023-04-14T02:24:08.569Z,8.87
2023-04-14T02:26:42.203Z,8.84
2023-04-14T02:29:13.034Z,8.85
2023-04-14T02:31:44.512Z,8.78
2023-04-14T02:34:18.294Z,8.79
2023-04-14T02:36:53.281Z,8.79
2023-04-14T02:39:27.351Z,8.83
2023-04-14T02:42:01.524Z,8.77
2023-04-14T02:44:33.361Z,8.72
2023-04-14T02:47:07.527Z,8.64
2023-04-14T02:49:44.340Z,8.61
2023-04-14T02:52:14.987Z,8.70
2023-04-14T02:54:45.125Z,8.64
2023-04-14T02:57:16.087Z,8.66
2023-04-14T02:59:47.925Z,8.61
2023-04-14T03:02:18.566Z,8.55
2023-04-14T03:04:54.298Z,8.50
2023-04-14T03:07:32.079Z,8.52
2023-04-14T03:10:01.448Z,8.50
2023-04-14T03:12:30.503Z,8.52
2023-04-14T03:15:00.490Z,8.48
2023-04-14T03:17:29.451Z,8.43
2023-04-14T03:20:00.245Z,8.43
2023-04-14T03:22:29.146Z,8.43
2023-04-14T03:24:58.774Z,8.47
2023-04-14T03:27:31.526Z,8.48
2023-04-14T03:30:04.165Z,8.45
2023-04-14T03:32:41.605Z,8.42
2023-04-14T03:35:15.397Z,8.43
2023-04-14T03:37:44.088Z,8.41
2023-04-14T03:40:15.086Z,8.33
2023-04-14T03:42:47.235Z,8.34
2023-04-14T03:45:21.094Z,8.29
2023-04-14T03:47:49.566Z,8.28
2023-04-14T03:50:21.143Z,8.18
2023-04-14T03:52:51.758Z,8.15
2023-04-14T03:55:20.426Z,8.14
2023-04-14T03:57:50.592Z,8.13
2023-04-14T04:00:21.016Z,8.16
2023-04-14T04:02:50.830Z,8.22
2023-04-14T04:05:22.036Z,8.27
2023-04-14T04:07:51.367Z,8.26
2023-04-14T04:10:21.156Z,8.24
2023-04-14T04:12:50.610Z,8.23
2023-04-14T04:15:18.466Z,8.22
2023-04-14T04:17:50.241Z,8.25
2023-04-14T04:20:21.919Z,8.23
2023-04-14T04:22:52.987Z,8.22
2023-04-14T04:25:21.509Z,8.27
2023-04-14T04:28:05.181Z,8.28
2023-04-14T04:30:33.615Z,8.25
2023-04-14T04:33:03.445Z,8.30
2023-04-14T04:35:33.248Z,8.27
2023-04-14T04:38:01.946Z,8.27
2023-04-14T04:40:36.980Z,8.26
2023-04-14T04:43:05.729Z,8.26
2023-04-14T04:45:46.884Z,8.22
2023-04-14T04:48:14.774Z,8.17
2023-04-14T04:50:46.386Z,8.08
2023-04-14T04:53:14.284Z,8.04
2023-04-14T04:55:42.936Z,8.04
2023-04-14T04:58:11.178Z,7.99
2023-04-14T05:00:38.974Z,8.04
2023-04-14T05:03:06.891Z,8.07
2023-04-14T05:05:36.623Z,8.01
2023-04-14T05:08:07.658Z,8.07
2023-04-14T05:10:36.534Z,8.07
2023-04-14T05:13:04.547Z,8.05
2023-04-14T05:15:32.366Z,8.06
2023-04-14T05:18:01.659Z,8.06
2023-04-14T05:20:29.760Z,8.10
2023-04-14T05:22:57.502Z,8.06
2023-04-14T05:25:26.647Z,8.03
2023-04-14T05:27:54.345Z,8.04
2023-04-14T05:30:22.118Z,8.08
2023-04-14T05:32:50.427Z,8.04
2023-04-14T05:35:18.267Z,8.10
2023-04-14T05:37:45.979Z,8.10
2023-04-14T05:40:14.189Z,8.09
2023-04-14T05:42:43.329Z,8.06
2023-04-14T05:45:11.700Z,8.11
2023-04-14T05:47:39.735Z,8.12
2023-04-14T05:50:08.975Z,8.13
2023-04-14T05:52:36.662Z,8.17
2023-04-14T05:55:04.482Z,8.13
2023-04-14T05:57:32.258Z,8.12
2023-04-14T06:00:01.510Z,8.14
2023-04-14T06:02:40.859Z,8.18
2023-04-14T06:05:09.949Z,8.15
2023-04-14T06:07:38.355Z,8.20
2023-04-14T06:10:07.177Z,8.23
2023-04-14T06:12:35.037Z,8.29
2023-04-14T06:15:05.190Z,8.34
2023-04-14T06:17:33.272Z,8.36
2023-04-14T06:20:01.272Z,8.37
2023-04-14T06:22:29.938Z,8.38
2023-04-14T06:24:58.234Z,8.38
2023-04-14T06:27:27.018Z,8.43
2023-04-14T06:29:55.098Z,8.39
2023-04-14T06:32:24.275Z,8.42
2023-04-14T06:34:53.397Z,8.45
2023-04-14T06:37:21.647Z,8.50
2023-04-14T06:39:52.198Z,8.56
2023-04-14T06:42:19.964Z,8.61
2023-04-14T06:44:49.302Z,8.68
2023-04-14T06:47:19.824Z,8.65
2023-04-14T06:49:49.054Z,8.78
2023-04-14T06:52:16.733Z,8.74
2023-04-14T06:54:44.537Z,8.83
2023-04-14T06:57:12.253Z,8.87
2023-04-14T06:59:40.853Z,8.90
2023-04-14T07:02:08.786Z,8.91
2023-04-14T07:04:37.489Z,8.91
2023-04-14T07:07:06.621Z,8.94
2023-04-14T07:09:34.873Z,8.94
2023-04-14T07:12:02.847Z,8.98
2023-04-14T07:14:32.501Z,8.96
2023-04-14T07:17:01.466Z,9.08
2023-04-14T07:19:29.416Z,9.05
2023-04-14T07:21:57.358Z,9.15
2023-04-14T07:24:26.672Z,9.19
2023-04-14T07:26:54.590Z,9.30
2023-04-14T07:29:22.284Z,9.26
2023-04-14T07:31:50.069Z,9.30
2023-04-14T07:34:18.226Z,9.31
2023-04-14T07:36:46.094Z,9.38
2023-04-14T07:39:13.885Z,9.42
2023-04-14T07:41:43.036Z,9.48
2023-04-14T07:44:10.732Z,9.52
2023-04-14T07:46:38.613Z,9.55
2023-04-14T07:49:06.570Z,9.55
2023-04-14T07:51:34.352Z,9.63
2023-04-14T07:54:02.474Z,9.66
2023-04-14T07:56:32.979Z,9.66
2023-04-14T07:59:03.755Z,9.66
2023-04-14T08:01:31.698Z,9.77
2023-04-14T08:03:59.666Z,9.78
2023-04-14T08:06:28.145Z,9.82
2023-04-14T08:08:55.914Z,9.83
2023-04-14T08:11:23.985Z,9.85
2023-04-14T08:13:52.924Z,9.92
2023-04-14T08:16:22.708Z,9.98
2023-04-14T08:18:50.657Z,10.06
2023-04-14T08:21:20.884Z,10.12
2023-04-14T08:23:48.659Z,10.13
2023-04-14T08:26:16.410Z,10.20
2023-04-14T08:28:44.084Z,10.24
2023-04-14T08:31:11.962Z,10.26
2023-04-14T08:33:41.151Z,10.23
2023-04-14T08:36:09.676Z,10.33
2023-04-14T08:38:40.633Z,10.37
2023-04-14T08:41:09.526Z,10.37
2023-04-14T08:43:37.872Z,10.45
2023-04-14T08:46:06.091Z,10.50
2023-04-14T08:48:36.863Z,10.52
2023-04-14T08:51:11.252Z,10.58
2023-04-14T08:53:47.280Z,10.64
2023-04-14T08:56:19.148Z,10.73
2023-04-14T08:58:47.642Z,10.73
2023-04-14T09:01:15.930Z,10.75
2023-04-14T09:03:44.767Z,10.64
2023-04-14T09:06:15.178Z,10.77
2023-04-14T09:08:45.795Z,10.82
2023-04-14T09:11:16.674Z,10.86
2023-04-14T09:13:45.598Z,10.94
2023-04-14T09:16:14.241Z,10.99
2023-04-14T09:18:42.295Z,11.02
2023-04-14T09:21:50.759Z,11.07
2023-04-14T09:24:01.068Z,11.08
2023-04-14T09:26:30.171Z,11.10
2023-04-14T09:28:58.678Z,11.11
2023-04-14T09:31:27.084Z,11.12
2023-04-14T09:33:54.821Z,11.20
2023-04-14T09:36:23.859Z,11.32
2023-04-14T09:38:53.018Z,11.38
2023-04-14T09:41:23.718Z,11.41
2023-04-14T09:43:52.671Z,11.47
2023-04-14T09:46:20.635Z,11.58
2023-04-14T09:48:53.137Z,11.66
2023-04-14T09:51:23.793Z,11.74
2023-04-14T09:53:54.024Z,11.84
2023-04-14T09:56:28.333Z,11.85
2023-04-14T09:58:59.851Z,12.00
2023-04-14T10:01:31.235Z,12.14
2023-04-14T10:04:01.172Z,12.12
2023-04-14T10:06:28.988Z,12.28
2023-04-14T10:08:57.291Z,12.35
2023-04-14T10:11:29.361Z,12.51
2023-04-14T10:13:58.423Z,12.61
2023-04-14T10:16:27.287Z,12.72
2023-04-14T10:18:57.563Z,12.77
2023-04-14T10:21:26.042Z,13.09
2023-04-14T10:23:56.444Z,13.35
2023-04-14T10:26:24.320Z,13.77
2023-04-14T10:28:55.707Z,14.26
2023-04-14T10:31:26.401Z,14.53
2023-04-14T10:33:54.513Z,14.80
2023-04-14T10:36:26.458Z,15.01
2023-04-14T10:39:02.006Z,15.18
2023-04-14T10:41:45.399Z,15.38
2023-04-14T10:44:24.952Z,15.62
2023-04-14T10:46:54.109Z,15.91
2023-04-14T10:49:26.033Z,16.06
2023-04-14T10:51:53.761Z,16.28
2023-04-14T10:54:21.825Z,16.44
2023-04-14T10:57:12.347Z,16.69
2023-04-14T10:59:47.390Z,16.86
2023-04-14T11:02:26.462Z,17.10
2023-04-14T11:05:05.830Z,17.20
2023-04-14T11:07:40.498Z,17.40
2023-04-14T11:10:28.840Z,17.64
2023-04-14T11:12:58.539Z,17.79
2023-04-14T11:15:44.258Z,17.73
2023-04-14T11:18:14.043Z,17.94
2023-04-14T11:20:42.617Z,17.89
2023-04-14T11:23:10.978Z,17.77
2023-04-14T11:25:40.379Z,17.80
2023-04-14T11:28:08.810Z,17.70
2023-04-14T11:30:37.949Z,17.40
2023-04-14T11:33:06.679Z,17.11
2023-04-14T11:35:35.067Z,17.07
2023-04-14T11:38:04.053Z,17.46
2023-04-14T11:40:31.850Z,17.86
2023-04-14T11:43:00.846Z,18.10
2023-04-14T11:45:29.862Z,18.35
2023-04-14T11:48:00.224Z,18.75
2023-04-14T11:50:31.128Z,18.88
2023-04-14T11:53:00.315Z,18.95
2023-04-14T11:55:28.534Z,18.90
2023-04-14T11:57:57.035Z,19.01
2023-04-14T12:00:25.483Z,19.11
2023-04-14T12:02:53.622Z,19.36
2023-04-14T12:05:30.241Z,19.52
2023-04-14T12:08:00.770Z,19.71
2023-04-14T12:10:29.215Z,20.05
2023-04-14T12:13:01.529Z,20.17
2023-04-14T12:15:30.406Z,20.36
2023-04-14T12:17:59.061Z,20.27
2023-04-14T12:20:30.260Z,20.22
2023-04-14T12:23:02.838Z,20.28
2023-04-14T12:25:32.997Z,20.30
2023-04-14T12:28:02.517Z,19.97
2023-04-14T12:30:30.394Z,19.96
2023-04-14T12:32:58.252Z,19.87
2023-04-14T12:35:26.130Z,19.97
2023-04-14T12:37:55.243Z,20.25
2023-04-14T12:40:40.921Z,20.29
2023-04-14T12:43:08.926Z,20.86
2023-04-14T12:45:44.314Z,20.96
2023-04-14T12:48:13.258Z,21.16
2023-04-14T12:50:41.399Z,21.05
2023-04-14T12:53:27.078Z,21.53
2023-04-14T12:56:10.459Z,21.68
2023-04-14T12:58:40.180Z,21.52
2023-04-14T13:01:08.299Z,21.80
2023-04-14T13:03:55.770Z,22.08
2023-04-14T13:06:25.271Z,22.24
2023-04-14T13:08:56.012Z,22.25
2023-04-14T13:11:24.878Z,22.32
2023-04-14T13:13:53.330Z,22.16
2023-04-14T13:16:22.116Z,22.24
2023-04-14T13:18:50.421Z,22.29
2023-04-14T13:21:18.188Z,22.44
2023-04-14T13:23:46.097Z,22.55
2023-04-14T13:26:15.444Z,22.56
2023-04-14T13:28:43.203Z,22.66
2023-04-14T13:31:13.020Z,22.77
2023-04-14T13:33:40.756Z,22.77
2023-04-14T13:36:09.109Z,22.69
2023-04-14T13:38:36.845Z,22.36
2023-04-14T13:41:04.629Z,22.33
2023-04-14T13:43:34.810Z,22.19
2023-04-14T13:46:03.105Z,22.10
2023-04-14T13:48:31.967Z,21.92
2023-04-14T13:51:00.001Z,21.70
2023-04-14T13:53:27.783Z,21.44
2023-04-14T13:55:55.590Z,21.44
2023-04-14T13:58:25.303Z,21.47
2023-04-14T14:00:55.337Z,20.98
2023-04-14T14:03:23.736Z,20.82
2023-04-14T14:05:51.708Z,20.77
2023-04-14T14:08:19.494Z,20.68
2023-04-14T14:10:47.209Z,20.55
2023-04-14T14:13:16.661Z,20.44
2023-04-14T14:15:46.164Z,19.73
2023-04-14T14:18:16.538Z,19.21
2023-04-14T14:20:45.640Z,19.10
2023-04-14T14:23:13.524Z,19.49
2023-04-14T14:25:41.803Z,19.79
2023-04-14T14:28:09.620Z,20.00
2023-04-14T14:30:37.397Z,20.13
2023-04-14T14:33:05.539Z,20.11
2023-04-14T14:35:34.669Z,19.79
2023-04-14T14:38:02.426Z,19.38
2023-04-14T14:40:30.874Z,19.54
2023-04-14T14:42:58.608Z,19.66
2023-04-14T14:45:30.416Z,19.35
2023-04-14T14:47:59.309Z,19.11
2023-04-14T14:50:27.251Z,18.94
2023-04-14T14:52:56.906Z,18.84
2023-04-14T14:55:24.698Z,18.91
2023-04-14T14:57:52.402Z,19.00
2023-04-14T15:00:20.513Z,18.87
2023-04-14T15:02:48.388Z,18.76
2023-04-14T15:05:16.301Z,18.67
2023-04-14T15:07:44.835Z,18.63
2023-04-14T15:10:14.382Z,18.49
2023-04-14T15:12:42.159Z,18.19
2023-04-14T15:15:10.543Z,18.02
2023-04-14T15:17:38.645Z,18.11
2023-04-14T15:20:08.330Z,18.17
2023-04-14T15:22:36.495Z,18.05
2023-04-14T15:25:04.416Z,18.02
2023-04-14T15:27:33.507Z,18.08
2023-04-14T15:30:01.405Z,18.10
2023-04-14T15:32:29.177Z,18.08
2023-04-14T15:34:57.189Z,18.01
2023-04-14T15:37:26.077Z,18.13
2023-04-14T15:39:53.778Z,17.98
2023-04-14T15:42:21.812Z,18.06
2023-04-14T15:44:51.756Z,17.96
2023-04-14T15:47:19.584Z,17.77
2023-04-14T15:49:50.017Z,17.54
2023-04-14T15:52:27.722Z,17.35
2023-04-14T15:54:55.475Z,17.42
2023-04-14T15:57:24.389Z,17.44
2023-04-14T15:59:53.482Z,17.30
2023-04-14T16:02:21.341Z,17.24
2023-04-14T16:04:49.229Z,17.13
2023-04-14T16:07:16.976Z,17.00
2023-04-14T16:09:44.684Z,16.77
2023-04-14T16:12:12.443Z,16.86
2023-04-14T16:14:40.229Z,16.72
2023-04-14T16:17:09.316Z,16.55
2023-04-14T16:19:37.125Z,16.53
2023-04-14T16:22:04.906Z,16.66
2023-04-14T16:24:32.737Z,16.68
2023-04-14T16:27:01.023Z,16.66
2023-04-14T16:29:28.760Z,16.51
2023-04-14T16:31:56.439Z,16.48
2023-04-14T16:34:25.592Z,16.44
2023-04-14T16:36:53.301Z,16.31
2023-04-14T16:39:22.208Z,16.43
2023-04-14T16:41:49.910Z,16.56
2023-04-14T16:44:17.548Z,16.68
2023-04-14T16:46:45.337Z,16.76
2023-04-14T16:49:14.704Z,16.80
2023-04-14T16:51:44.410Z,16.83
2023-04-14T16:54:12.141Z,16.80
2023-04-14T16:56:39.941Z,16.80
2023-04-14T16:59:08.878Z,16.85
2023-04-14T17:01:36.688Z,16.83
2023-04-14T17:04:05.221Z,16.79
2023-04-14T17:06:33.495Z,16.83
2023-04-14T17:09:03.818Z,16.75
2023-04-14T17:11:31.848Z,16.64
2023-04-14T17:13:59.769Z,16.51
2023-04-14T17:16:28.590Z,16.45
2023-04-14T17:18:58.133Z,16.40
2023-04-14T17:21:26.429Z,16.27
2023-04-14T17:23:54.600Z,16.10
2023-04-14T17:26:24.758Z,15.98
2023-04-14T17:28:52.714Z,15.82
2023-04-14T17:31:20.921Z,15.66
2023-04-14T17:33:48.705Z,15.60
2023-04-14T17:36:17.496Z,15.48
2023-04-14T17:38:45.884Z,15.37
2023-04-14T17:41:13.909Z,15.34
2023-04-14T17:43:42.977Z,15.22
2023-04-14T17:46:11.741Z,15.07
2023-04-14T17:48:40.360Z,14.98
2023-04-14T17:51:08.255Z,14.84
2023-04-14T17:53:36.069Z,14.78
2023-04-14T17:56:03.930Z,14.68
2023-04-14T17:58:32.476Z,14.56
2023-04-14T18:01:01.986Z,14.47
2023-04-14T18:03:29.801Z,14.37
2023-04-14T18:05:57.713Z,14.31
2023-04-14T18:08:25.885Z,14.22
2023-04-14T18:10:53.589Z,14.13
2023-04-14T18:13:21.297Z,14.15
2023-04-14T18:15:50.480Z,14.05
2023-04-14T18:18:20.036Z,13.99
2023-04-14T18:20:52.036Z,13.87
2023-04-14T18:23:19.830Z,13.99
2023-04-14T18:28:18.450Z,13.76
2023-04-14T18:30:53.465Z,13.67
2023-04-14T18:33:22.591Z,13.59
2023-04-14T18:35:51.733Z,13.50
2023-04-14T18:38:19.810Z,13.48
2023-04-14T18:40:48.440Z,13.50
2023-04-14T18:43:17.028Z,13.35
2023-04-14T18:45:48.555Z,13.24
2023-04-14T18:48:16.994Z,13.22
2023-04-14T18:50:46.637Z,13.18
2023-04-14T18:53:14.716Z,13.13
2023-04-14T18:55:45.738Z,13.01
2023-04-14T18:58:14.206Z,12.89
2023-04-14T19:00:43.151Z,12.86
2023-04-14T19:03:11.039Z,12.83
2023-04-14T19:05:39.535Z,12.80
2023-04-14T19:08:08.800Z,12.78
2023-04-14T19:10:37.330Z,12.74
2023-04-14T19:13:05.709Z,12.63
2023-04-14T19:15:33.484Z,12.71
2023-04-14T19:18:01.369Z,12.76
2023-04-14T19:20:29.173Z,12.78
2023-04-14T19:22:57.034Z,12.80
2023-04-14T19:25:26.066Z,12.80
2023-04-14T19:27:54.233Z,12.80
2023-04-14T19:30:21.960Z,12.82
2023-04-14T19:32:50.521Z,12.91
2023-04-14T19:35:18.527Z,12.96
2023-04-14T19:37:46.330Z,12.97
2023-04-14T19:40:14.412Z,13.01
2023-04-14T19:42:43.721Z,13.03
2023-04-14T19:45:12.006Z,13.00
2023-04-14T19:47:39.763Z,13.07
2023-04-14T19:50:08.224Z,13.10
2023-04-14T19:52:36.506Z,13.19
2023-04-14T19:55:05.481Z,13.16
2023-04-14T19:57:33.293Z,13.13
2023-04-14T20:00:02.462Z,13.08
2023-04-14T20:02:40.570Z,13.11
2023-04-14T20:05:08.980Z,13.09
2023-04-14T20:07:36.979Z,13.12
2023-04-14T20:10:05.235Z,13.12
2023-04-14T20:12:33.128Z,13.05
2023-04-14T20:15:03.429Z,13.07
2023-04-14T20:17:31.341Z,12.95
2023-04-14T20:19:59.380Z,12.94
2023-04-14T20:22:27.155Z,12.87
2023-04-14T20:24:54.962Z,12.82
2023-04-14T20:27:23.771Z,12.79
2023-04-14T20:29:51.494Z,12.76
2023-04-14T20:32:20.676Z,12.65
2023-04-14T20:34:48.516Z,12.56
2023-04-14T20:37:16.507Z,12.52
2023-04-14T20:39:45.118Z,12.49
2023-04-14T20:42:13.502Z,12.40
2023-04-14T20:44:41.517Z,12.36
2023-04-14T20:47:09.388Z,12.38
2023-04-14T20:49:38.500Z,12.33
2023-04-14T20:52:07.501Z,12.29
2023-04-14T20:54:35.455Z,12.29
2023-04-14T20:57:05.462Z,12.30
2023-04-14T20:59:33.493Z,12.23
2023-04-14T21:02:03.030Z,12.21
2023-04-14T21:04:31.057Z,12.17
2023-04-14T21:07:00.475Z,12.18
2023-04-14T21:09:28.696Z,12.14
2023-04-14T21:12:15.373Z,12.07
2023-04-14T21:15:41.707Z,12.01
2023-04-14T21:17:32.366Z,11.94
2023-04-14T21:20:00.245Z,11.86
2023-04-14T21:22:29.296Z,11.85
2023-04-14T21:24:57.013Z,11.76
2023-04-14T21:27:25.334Z,11.72
2023-04-14T21:29:53.404Z,11.61
2023-04-14T21:32:21.855Z,11.61
2023-04-14T21:34:49.745Z,11.62
2023-04-14T21:37:18.630Z,11.57
2023-04-14T21:39:47.864Z,11.58
2023-04-14T21:42:15.645Z,11.53
2023-04-14T21:44:43.844Z,11.42
2023-04-14T21:47:11.781Z,11.48
2023-04-14T21:49:39.507Z,11.45
2023-04-14T21:52:07.222Z,11.42
2023-04-14T21:54:35.280Z,11.36
2023-04-14T21:57:04.501Z,11.36
2023-04-14T21:59:32.255Z,11.30
2023-04-14T22:02:00.960Z,11.27
2023-04-14T22:04:36.285Z,11.25
2023-04-14T22:07:05.047Z,11.23
2023-04-14T22:09:33.636Z,11.16
2023-04-14T22:12:01.974Z,11.13
2023-04-14T22:14:31.054Z,11.14
2023-04-14T22:16:58.856Z,11.13
2023-04-14T22:19:28.729Z,11.11
2023-04-14T22:21:56.603Z,11.08
2023-04-14T22:24:25.194Z,11.06
2023-04-14T22:26:53.520Z,11.06
2023-04-14T22:29:21.287Z,11.01
2023-04-14T22:31:50.483Z,10.95
2023-04-14T22:34:18.158Z,10.93
2023-04-14T22:36:45.836Z,10.90
2023-04-14T22:39:13.659Z,10.84
2023-04-14T22:41:41.428Z,10.81
2023-04-14T22:44:09.212Z,10.79
2023-04-14T22:46:37.535Z,10.75
2023-04-14T22:49:07.327Z,10.69
2023-04-14T22:51:35.078Z,10.68
2023-04-14T22:54:02.800Z,10.62
2023-04-14T22:56:30.680Z,10.59
2023-04-14T22:58:58.713Z,10.57
2023-04-14T23:01:28.919Z,10.55
2023-04-14T23:03:56.897Z,10.57
2023-04-14T23:06:26.112Z,10.58
2023-04-14T23:08:53.848Z,10.56
2023-04-14T23:11:21.782Z,10.54
2023-04-14T23:13:50.108Z,10.53
2023-04-14T23:16:19.912Z,10.51
2023-04-14T23:18:49.612Z,10.47
2023-04-14T23:21:17.728Z,10.46
2023-04-14T23:23:46.867Z,10.41
2023-04-14T23:26:14.744Z,10.40
2023-04-14T23:28:42.554Z,10.34
2023-04-14T23:31:10.915Z,10.31
2023-04-14T23:33:38.688Z,10.29
2023-04-14T23:36:07.607Z,10.23
2023-04-14T23:38:35.408Z,10.17
2023-04-14T23:41:04.856Z,10.17
2023-04-14T23:43:32.704Z,10.14
2023-04-14T23:46:00.678Z,10.13
2023-04-14T23:48:28.448Z,10.07
2023-04-14T23:51:00.978Z,10.05
2023-04-14T23:53:43.611Z,10.02
2023-04-14T23:56:12.990Z,10.00
2023-04-14T23:58:40.706Z,9.97
